Time;durP1;ratioP1;P1;durP2;ratioP2;P2;SDS_P1;SDS_P2;PMS_P1;PMS_P2;Temp;Humidity;BMP_temperature;BMP_pressure;BME280_temperature;BME280_humidity;BME280_pressure;Samples;Min_cycle;Max_cycle;Signal;HPM_P1;HPM_P2
2023/04/10 00:01:09;;;;;;;6.50;5.90;;;;;;;;;;5116203;28;20310;-85
2023/04/10 00:03:37;;;;;;;8.20;7.15;;;;;;;;;;5115676;28;20220;-85
2023/04/10 00:06:06;;;;;;;7.03;6.32;;;;;;;;;;5114649;28;20206;-84
2023/04/10 00:08:34;;;;;;;8.73;6.18;;;;;;;;;;5115031;28;20228;-84
2023/04/10 00:11:01;;;;;;;6.60;5.97;;;;;;;;;;5115731;28;20208;-84
2023/04/10 00:13:30;;;;;;;8.15;6.55;;;;;;;;;;5115118;28;20224;-84
2023/04/10 00:15:58;;;;;;;6.22;5.53;;;;;;;;;;5115729;28;20246;-84
2023/04/10 00:18:25;;;;;;;6.72;6.10;;;;;;;;;;5115299;28;20291;-84
2023/04/10 00:20:53;;;;;;;7.75;6.60;;;;;;;;;;5115269;28;20215;-84
2023/04/10 00:23:23;;;;;;;6.78;6.07;;;;;;;;;;5115668;28;20191;-84
2023/04/10 00:25:50;;;;;;;6.78;6.03;;;;;;;;;;5115634;28;20195;-84
2023/04/10 00:28:18;;;;;;;5.75;5.22;;;;;;;;;;5115464;28;20286;-84
2023/04/10 00:30:45;;;;;;;7.22;6.07;;;;;;;;;;5114477;28;20202;-85
2023/04/10 00:33:13;;;;;;;7.20;6.47;;;;;;;;;;5115174;28;20203;-83
2023/04/10 00:35:40;;;;;;;7.18;6.22;;;;;;;;;;5114231;28;20287;-84
2023/04/10 00:38:08;;;;;;;6.40;5.80;;;;;;;;;;5113969;28;20303;-84
2023/04/10 00:40:37;;;;;;;7.30;6.53;;;;;;;;;;5115210;28;20219;-85
2023/04/10 00:43:04;;;;;;;7.05;6.35;;;;;;;;;;5115222;28;20279;-84
2023/04/10 00:45:32;;;;;;;11.25;7.47;;;;;;;;;;5114944;28;20302;-84
2023/04/10 00:47:59;;;;;;;6.97;6.20;;;;;;;;;;5114800;28;20290;-83
2023/04/10 00:50:27;;;;;;;6.85;6.00;;;;;;;;;;5115552;28;20203;-84
2023/04/10 00:52:54;;;;;;;7.50;6.70;;;;;;;;;;5114715;28;20369;-84
2023/04/10 00:55:22;;;;;;;7.78;7.00;;;;;;;;;;5115029;28;20219;-84
2023/04/10 00:57:51;;;;;;;6.10;5.50;;;;;;;;;;5115037;28;20288;-85
2023/04/10 01:00:19;;;;;;;7.05;6.45;;;;;;;;;;5114826;28;20640;-84
2023/04/10 01:02:46;;;;;;;6.60;5.88;;;;;;;;;;5114523;28;20290;-83
2023/04/10 01:05:14;;;;;;;6.90;6.18;;;;;;;;;;5113760;28;20250;-84
2023/04/10 01:07:58;;;;;;;7.85;6.15;;;;;;;;;;5113600;28;20282;-84
2023/04/10 01:10:33;;;;;;;6.50;5.90;;;;;;;;;;5114714;28;20190;-84
2023/04/10 01:13:11;;;;;;;8.80;7.03;;;;;;;;;;5115013;28;20239;-84
2023/04/10 01:15:47;;;;;;;8.13;6.22;;;;;;;;;;5115004;28;20192;-83
2023/04/10 01:18:19;;;;;;;5.95;5.30;;;;;;;;;;5114539;28;20188;-83
2023/04/10 01:20:47;;;;;;;6.53;5.65;;;;;;;;;;5114721;28;20227;-83
2023/04/10 01:23:35;;;;;;;6.07;5.50;;;;;;;;;;5114412;28;20199;-83
2023/04/10 01:26:05;;;;;;;6.03;5.43;;;;;;;;;;5114851;28;20188;-84
2023/04/10 01:28:53;;;;;;;5.57;5.07;;;;;;;;;;5114836;28;20205;-83
2023/04/10 01:31:25;;;;;;;7.15;5.32;;;;;;;;;;5114861;28;20176;-84
2023/04/10 01:33:57;;;;;;;5.95;5.45;;;;;;;;;;5114713;28;20249;-84
2023/04/10 01:36:28;;;;;;;6.40;5.78;;;;;;;;;;5113966;28;20687;-84
2023/04/10 01:38:57;;;;;;;6.53;5.78;;;;;;;;;;5114182;28;20244;-83
2023/04/10 01:41:26;;;;;;;7.10;5.93;;;;;;;;;;5117437;28;20253;-84
2023/04/10 01:43:56;;;;;;;5.80;5.30;;;;;;;;;;5118123;28;20307;-84
2023/04/10 01:46:24;;;;;;;6.93;6.22;;;;;;;;;;5118923;28;20246;-84
2023/04/10 01:48:52;;;;;;;8.27;5.28;;;;;;;;;;5118589;28;20287;-84
2023/04/10 01:51:20;;;;;;;6.55;5.95;;;;;;;;;;5119214;28;20219;-84
2023/04/10 01:53:49;;;;;;;5.93;5.30;;;;;;;;;;5118611;28;20215;-83
2023/04/10 01:56:17;;;;;;;7.38;5.82;;;;;;;;;;5118621;28;20192;-84
2023/04/10 01:58:45;;;;;;;6.25;5.60;;;;;;;;;;5118263;28;20290;-84
2023/04/10 02:01:19;;;;;;;6.80;5.85;;;;;;;;;;5118702;28;20227;-84
2023/04/10 02:03:47;;;;;;;6.95;6.25;;;;;;;;;;5117700;28;20246;-83
2023/04/10 02:06:18;;;;;;;5.95;5.35;;;;;;;;;;5117106;28;20789;-83
2023/04/10 02:08:56;;;;;;;6.45;5.82;;;;;;;;;;5117308;28;20267;-84
2023/04/10 02:11:47;;;;;;;5.25;4.55;;;;;;;;;;5118015;28;20215;-84
2023/04/10 02:14:18;;;;;;;6.38;5.75;;;;;;;;;;5117731;28;20302;-84
2023/04/10 02:16:48;;;;;;;6.13;5.53;;;;;;;;;;5117945;28;20275;-84
2023/04/10 02:19:16;;;;;;;6.25;5.65;;;;;;;;;;5118491;28;20204;-84
2023/04/10 02:21:44;;;;;;;7.22;5.40;;;;;;;;;;5117627;28;20643;-84
2023/04/10 02:24:11;;;;;;;8.30;6.90;;;;;;;;;;5118238;28;20342;-85
2023/04/10 02:26:46;;;;;;;6.20;5.60;;;;;;;;;;5117926;28;20212;-84
2023/04/10 02:29:14;;;;;;;6.43;5.70;;;;;;;;;;5117848;28;20249;-84
2023/04/10 02:31:41;;;;;;;5.72;5.13;;;;;;;;;;5117398;28;20192;-83
2023/04/10 02:34:11;;;;;;;5.65;5.15;;;;;;;;;;5116894;28;20658;-83
2023/04/10 02:36:39;;;;;;;5.35;4.85;;;;;;;;;;5116490;28;20204;-84
2023/04/10 02:39:08;;;;;;;5.15;4.65;;;;;;;;;;5117156;28;20279;-84
2023/04/10 02:41:35;;;;;;;5.00;4.50;;;;;;;;;;5117839;28;20215;-84
2023/04/10 02:44:03;;;;;;;5.05;4.55;;;;;;;;;;5117697;28;20588;-84
2023/04/10 02:46:30;;;;;;;6.32;4.78;;;;;;;;;;5117752;28;20203;-84
2023/04/10 02:48:58;;;;;;;5.53;5.00;;;;;;;;;;5118012;28;20282;-84
2023/04/10 02:51:27;;;;;;;6.20;5.63;;;;;;;;;;5117761;28;20636;-83
2023/04/10 02:53:54;;;;;;;6.68;6.00;;;;;;;;;;5117600;28;20216;-84
2023/04/10 02:56:22;;;;;;;5.40;4.90;;;;;;;;;;5117665;28;20200;-83
2023/04/10 02:58:49;;;;;;;5.50;4.97;;;;;;;;;;5117781;28;20216;-84
2023/04/10 03:01:17;;;;;;;6.45;5.85;;;;;;;;;;5117786;28;20250;-84
2023/04/10 03:03:44;;;;;;;5.40;4.80;;;;;;;;;;5116877;28;20678;-83
2023/04/10 03:06:12;;;;;;;4.07;3.65;;;;;;;;;;5116403;28;20192;-83
2023/04/10 03:08:41;;;;;;;4.75;4.30;;;;;;;;;;5116430;28;20645;-84
2023/04/10 03:11:08;;;;;;;5.35;4.57;;;;;;;;;;5117443;28;20275;-85
2023/04/10 03:13:36;;;;;;;4.10;3.70;;;;;;;;;;5117399;28;20594;-83
2023/04/10 03:16:04;;;;;;;5.68;4.85;;;;;;;;;;5117376;28;20278;-84
2023/04/10 03:18:33;;;;;;;5.00;4.45;;;;;;;;;;5117053;28;20192;-83
2023/04/10 03:21:01;;;;;;;4.38;3.97;;;;;;;;;;5117871;28;20196;-83
2023/04/10 03:23:29;;;;;;;5.30;4.80;;;;;;;;;;5117240;28;20220;-84
2023/04/10 03:25:57;;;;;;;5.25;4.85;;;;;;;;;;5116772;28;20704;-83
2023/04/10 03:28:26;;;;;;;5.05;4.50;;;;;;;;;;5117626;28;20216;-83
2023/04/10 03:31:12;;;;;;;4.95;4.45;;;;;;;;;;5117429;28;20176;-83
2023/04/10 03:33:40;;;;;;;3.95;3.65;;;;;;;;;;5116480;28;20246;-84
2023/04/10 03:36:09;;;;;;;4.18;3.78;;;;;;;;;;5116532;28;20621;-84
2023/04/10 03:38:36;;;;;;;4.72;4.25;;;;;;;;;;5116340;28;20200;-84
2023/04/10 03:41:06;;;;;;;4.82;4.07;;;;;;;;;;5117246;28;20192;-84
2023/04/10 03:43:34;;;;;;;4.68;4.18;;;;;;;;;;5117543;28;20215;-83
2023/04/10 03:46:01;;;;;;;4.40;4.00;;;;;;;;;;5117050;28;20227;-85
2023/04/10 03:48:29;;;;;;;5.35;4.78;;;;;;;;;;5116919;28;20188;-83
2023/04/10 03:50:57;;;;;;;5.45;4.95;;;;;;;;;;5117502;28;20222;-83
2023/04/10 03:53:24;;;;;;;4.97;4.47;;;;;;;;;;5116733;28;20228;-83
2023/04/10 03:55:52;;;;;;;6.75;5.70;;;;;;;;;;5116761;28;20283;-85
2023/04/10 03:58:21;;;;;;;7.22;6.45;;;;;;;;;;5117067;28;20241;-84
2023/04/10 04:00:49;;;;;;;5.18;4.70;;;;;;;;;;5117241;28;20699;-83
2023/04/10 04:03:16;;;;;;;6.35;5.53;;;;;;;;;;5115647;28;20223;-83
2023/04/10 04:05:44;;;;;;;5.13;4.63;;;;;;;;;;5115265;28;20711;-84
2023/04/10 04:08:12;;;;;;;5.05;4.55;;;;;;;;;;5115965;28;20200;-84
2023/04/10 04:10:40;;;;;;;4.93;4.43;;;;;;;;;;5117539;28;20566;-84
2023/04/10 04:13:07;;;;;;;6.30;5.70;;;;;;;;;;5119264;28;20226;-83
2023/04/10 04:15:36;;;;;;;4.65;4.25;;;;;;;;;;5122283;28;20203;-85
2023/04/10 04:18:04;;;;;;;5.03;4.32;;;;;;;;;;5123036;28;20195;-85
2023/04/10 04:20:32;;;;;;;4.43;4.03;;;;;;;;;;5122778;28;20215;-86
2023/04/10 04:22:59;;;;;;;4.07;3.72;;;;;;;;;;5122059;28;20223;-86
2023/04/10 04:25:27;;;;;;;4.40;3.75;;;;;;;;;;5122369;28;20239;-86
2023/04/10 04:27:55;;;;;;;4.07;3.67;;;;;;;;;;5122777;28;20215;-85
2023/04/10 04:30:23;;;;;;;4.97;4.57;;;;;;;;;;5122420;28;20625;-84
2023/04/10 04:32:52;;;;;;;5.78;5.28;;;;;;;;;;5122725;28;20195;-84
2023/04/10 04:35:19;;;;;;;5.13;4.72;;;;;;;;;;5121719;28;20280;-85
2023/04/10 04:37:47;;;;;;;4.72;4.32;;;;;;;;;;5089270;22;20252;-84
2023/04/10 04:40:14;;;;;;;6.03;4.32;;;;;;;;;;5079278;28;20240;-84
2023/04/10 04:42:42;;;;;;;4.35;3.95;;;;;;;;;;5079496;28;20239;-85
2023/04/10 04:45:11;;;;;;;4.32;3.90;;;;;;;;;;5079824;28;20228;-84
2023/04/10 04:47:38;;;;;;;5.63;5.13;;;;;;;;;;5079154;28;20220;-85
2023/04/10 04:50:09;;;;;;;5.60;5.10;;;;;;;;;;5078366;28;20632;-84
2023/04/10 04:52:37;;;;;;;6.82;5.75;;;;;;;;;;5078675;28;20279;-83
2023/04/10 04:55:05;;;;;;;5.93;5.05;;;;;;;;;;5078052;28;20286;-84
2023/04/10 04:57:33;;;;;;;5.60;5.10;;;;;;;;;;5078008;28;20244;-83
2023/04/10 05:00:00;;;;;;;5.15;4.65;;;;;;;;;;5078522;28;20265;-84
2023/04/10 05:02:28;;;;;;;6.13;5.63;;;;;;;;;;5078681;28;20248;-85
2023/04/10 05:04:55;;;;;;;6.05;5.45;;;;;;;;;;5078931;28;20292;-84
2023/04/10 05:07:24;;;;;;;6.88;6.18;;;;;;;;;;5078198;28;20793;-84
2023/04/10 05:09:52;;;;;;;6.20;5.55;;;;;;;;;;5080024;28;20200;-84
2023/04/10 05:12:19;;;;;;;6.03;5.13;;;;;;;;;;5081020;28;20228;-84
2023/04/10 05:14:47;;;;;;;5.50;4.93;;;;;;;;;;5080938;28;20268;-85
2023/04/10 05:17:15;;;;;;;5.50;5.00;;;;;;;;;;5082918;28;20259;-84
2023/04/10 05:19:43;;;;;;;5.00;4.60;;;;;;;;;;5083293;28;20205;-85
2023/04/10 05:22:10;;;;;;;4.72;4.32;;;;;;;;;;5083274;28;20355;-84
2023/04/10 05:24:39;;;;;;;5.28;4.68;;;;;;;;;;5082756;28;20304;-83
2023/04/10 05:27:07;;;;;;;6.18;5.57;;;;;;;;;;5082051;28;20609;-85
2023/04/10 05:29:34;;;;;;;6.38;5.32;;;;;;;;;;5080810;28;20224;-84
2023/04/10 05:32:02;;;;;;;5.85;5.35;;;;;;;;;;5080128;28;20204;-84
2023/04/10 05:34:29;;;;;;;7.63;6.93;;;;;;;;;;5081692;28;20617;-84
2023/04/10 05:36:57;;;;;;;8.77;7.75;;;;;;;;;;5080597;28;20268;-84
2023/04/10 05:39:24;;;;;;;7.75;6.65;;;;;;;;;;5082099;28;20235;-85
2023/04/10 05:41:53;;;;;;;8.82;7.10;;;;;;;;;;5079568;28;20621;-84
2023/04/10 05:44:20;;;;;;;7.70;6.97;;;;;;;;;;5078174;28;20311;-85
2023/04/10 05:46:48;;;;;;;7.63;6.80;;;;;;;;;;5078786;28;20260;-83
2023/04/10 05:49:16;;;;;;;9.68;8.55;;;;;;;;;;5078850;28;20240;-85
2023/04/10 05:51:48;;;;;;;8.75;7.43;;;;;;;;;;5078862;28;20205;-86
2023/04/10 05:54:17;;;;;;;9.43;8.40;;;;;;;;;;5079422;28;20216;-82
2023/04/10 05:56:45;;;;;;;7.80;6.70;;;;;;;;;;5077644;28;20315;-83
2023/04/10 05:59:14;;;;;;;8.15;7.45;;;;;;;;;;5078493;28;20300;-82
2023/04/10 06:01:42;;;;;;;9.55;8.60;;;;;;;;;;5078810;28;20193;-84
2023/04/10 06:04:09;;;;;;;13.05;9.48;;;;;;;;;;5077027;28;20764;-85
2023/04/10 06:06:37;;;;;;;9.63;8.63;;;;;;;;;;5076712;28;20227;-85
2023/04/10 06:09:04;;;;;;;9.75;8.60;;;;;;;;;;5076668;28;20205;-84
2023/04/10 06:11:32;;;;;;;9.60;7.75;;;;;;;;;;5077886;28;20197;-86
2023/04/10 06:13:59;;;;;;;8.98;7.80;;;;;;;;;;5075481;28;20211;-85
2023/04/10 06:16:28;;;;;;;7.25;6.47;;;;;;;;;;5058123;28;20304;-82
2023/04/10 06:18:56;;;;;;;10.40;8.60;;;;;;;;;;5056607;28;20291;-85
2023/04/10 06:21:23;;;;;;;10.18;8.68;;;;;;;;;;5057158;28;20204;-86
2023/04/10 06:23:51;;;;;;;8.52;7.63;;;;;;;;;;5057811;28;20765;-85
2023/04/10 06:26:18;;;;;;;7.85;6.80;;;;;;;;;;5058130;28;20264;-87
2023/04/10 06:28:46;;;;;;;8.13;6.53;;;;;;;;;;5063863;28;20240;-85
2023/04/10 06:31:13;;;;;;;7.32;6.63;;;;;;;;;;5061347;28;20232;-87
2023/04/10 06:33:42;;;;;;;8.13;7.32;;;;;;;;;;5058217;28;20237;-85
2023/04/10 06:36:10;;;;;;;7.13;6.43;;;;;;;;;;5058220;28;20234;-84
2023/04/10 06:38:37;;;;;;;9.05;7.95;;;;;;;;;;5058532;28;20252;-86
2023/04/10 06:41:06;;;;;;;7.82;6.80;;;;;;;;;;5060040;28;20675;-86
2023/04/10 06:43:35;;;;;;;8.05;7.25;;;;;;;;;;5069659;28;20213;-86
2023/04/10 06:46:03;;;;;;;7.22;6.53;;;;;;;;;;5077132;28;20194;-86
2023/04/10 06:48:32;;;;;;;9.88;6.97;;;;;;;;;;5077786;28;20205;-86
2023/04/10 06:51:01;;;;;;;8.93;8.00;;;;;;;;;;5077487;28;20268;-84
2023/04/10 06:53:28;;;;;;;8.43;7.38;;;;;;;;;;5078078;28;20203;-86
2023/04/10 06:55:57;;;;;;;8.02;7.22;;;;;;;;;;5077592;28;20232;-85
2023/04/10 06:58:24;;;;;;;8.63;7.72;;;;;;;;;;5077700;28;20288;-85
2023/04/10 07:00:53;;;;;;;9.88;8.90;;;;;;;;;;5077606;28;20276;-84
2023/04/10 07:03:20;;;;;;;9.52;8.45;;;;;;;;;;5077960;28;20207;-84
2023/04/10 07:05:48;;;;;;;8.00;7.25;;;;;;;;;;5077522;28;20236;-85
2023/04/10 07:08:16;;;;;;;8.20;7.35;;;;;;;;;;5078496;28;20243;-85
2023/04/10 07:10:44;;;;;;;8.60;7.75;;;;;;;;;;5078235;28;20291;-85
2023/04/10 07:13:11;;;;;;;8.55;7.75;;;;;;;;;;5057043;28;20284;-83
2023/04/10 07:15:39;;;;;;;6.78;6.18;;;;;;;;;;5072010;28;20640;-86
2023/04/10 07:18:06;;;;;;;7.72;6.93;;;;;;;;;;5078354;28;20225;-86
2023/04/10 07:20:34;;;;;;;7.80;7.00;;;;;;;;;;5078938;28;20225;-85
2023/04/10 07:23:02;;;;;;;6.70;6.10;;;;;;;;;;5079157;28;20197;-87
2023/04/10 07:25:31;;;;;;;6.90;6.28;;;;;;;;;;5080250;28;20740;-85
2023/04/10 07:27:58;;;;;;;6.80;6.10;;;;;;;;;;5080767;28;20231;-85
2023/04/10 07:30:26;;;;;;;7.93;7.13;;;;;;;;;;5079082;28;20293;-87
2023/04/10 07:32:53;;;;;;;7.95;6.93;;;;;;;;;;5078450;28;20648;-85
2023/04/10 07:35:21;;;;;;;8.60;7.68;;;;;;;;;;5078251;28;20571;-85
2023/04/10 07:37:50;;;;;;;7.05;6.35;;;;;;;;;;5077059;28;20243;-85
2023/04/10 07:40:18;;;;;;;7.90;7.10;;;;;;;;;;5077772;28;20700;-85
2023/04/10 07:42:47;;;;;;;8.50;7.15;;;;;;;;;;5077547;28;20288;-85
2023/04/10 07:45:15;;;;;;;7.68;6.97;;;;;;;;;;5078439;28;20224;-86
2023/04/10 07:47:42;;;;;;;7.85;7.13;;;;;;;;;;5077325;28;20221;-85
2023/04/10 07:50:10;;;;;;;7.85;7.05;;;;;;;;;;5095514;28;20227;-87
2023/04/10 07:52:38;;;;;;;8.73;6.93;;;;;;;;;;5098320;28;20714;-85
2023/04/10 07:55:06;;;;;;;7.88;6.80;;;;;;;;;;5098406;28;20220;-86
2023/04/10 07:57:34;;;;;;;7.63;6.78;;;;;;;;;;5098565;28;20204;-87
2023/04/10 08:00:03;;;;;;;8.48;7.53;;;;;;;;;;5099745;28;20199;-86
2023/04/10 08:02:30;;;;;;;7.82;7.03;;;;;;;;;;5100819;28;20188;-86
2023/04/10 08:04:58;;;;;;;8.18;6.65;;;;;;;;;;5099952;28;20276;-84
2023/04/10 08:07:25;;;;;;;8.82;7.93;;;;;;;;;;5098460;28;20251;-87
2023/04/10 08:09:53;;;;;;;7.88;7.13;;;;;;;;;;5099518;28;20224;-86
2023/04/10 08:12:20;;;;;;;7.25;6.53;;;;;;;;;;5086440;28;20237;-87
2023/04/10 08:14:50;;;;;;;7.78;7.00;;;;;;;;;;5078405;28;20255;-87
2023/04/10 08:17:19;;;;;;;8.27;7.50;;;;;;;;;;5079286;28;20217;-87
2023/04/10 08:19:46;;;;;;;7.15;6.45;;;;;;;;;;5084444;28;20552;-86
2023/04/10 08:22:14;;;;;;;7.00;6.35;;;;;;;;;;5081639;28;20213;-86
2023/04/10 08:24:41;;;;;;;7.15;6.45;;;;;;;;;;5079475;28;20251;-87
2023/04/10 08:27:09;;;;;;;7.25;6.55;;;;;;;;;;5081013;28;20442;-88
2023/04/10 08:29:36;;;;;;;6.80;6.10;;;;;;;;;;5080720;28;20231;-86
2023/04/10 08:32:04;;;;;;;7.35;6.65;;;;;;;;;;5079789;28;20317;-86
2023/04/10 08:34:33;;;;;;;6.97;6.28;;;;;;;;;;5080227;28;20632;-84
2023/04/10 08:37:00;;;;;;;6.72;6.13;;;;;;;;;;5080121;28;20788;-86
2023/04/10 08:39:28;;;;;;;7.05;6.45;;;;;;;;;;5080834;28;20200;-84
2023/04/10 08:41:55;;;;;;;6.47;5.88;;;;;;;;;;5079703;28;20283;-87
2023/04/10 08:44:23;;;;;;;6.38;5.78;;;;;;;;;;5078644;28;20236;-85
2023/04/10 08:46:51;;;;;;;7.82;7.03;;;;;;;;;;5079941;28;20252;-84
2023/04/10 08:49:32;;;;;;;7.00;6.30;;;;;;;;;;5079239;28;20235;-83
2023/04/10 08:52:03;;;;;;;6.57;5.88;;;;;;;;;;5078807;28;20185;-87
2023/04/10 08:54:32;;;;;;;7.63;6.93;;;;;;;;;;5081379;28;20288;-84
2023/04/10 08:57:00;;;;;;;8.38;6.97;;;;;;;;;;5079137;28;20296;-84
2023/04/10 08:59:29;;;;;;;6.47;5.88;;;;;;;;;;5078167;28;20211;-83
2023/04/10 09:01:57;;;;;;;6.20;5.68;;;;;;;;;;5080380;28;20193;-85
2023/04/10 09:04:25;;;;;;;7.20;6.43;;;;;;;;;;5078857;28;20288;-84
2023/04/10 09:06:53;;;;;;;6.88;6.28;;;;;;;;;;5078224;28;20327;-84
2023/04/10 09:09:22;;;;;;;6.85;6.15;;;;;;;;;;5079341;28;20201;-85
2023/04/10 09:12:01;;;;;;;7.43;6.72;;;;;;;;;;5071405;28;20244;-86
2023/04/10 09:14:31;;;;;;;7.13;6.30;;;;;;;;;;5061149;28;20189;-84
2023/04/10 09:17:17;;;;;;;6.82;6.22;;;;;;;;;;5059913;28;20269;-87
2023/04/10 09:19:46;;;;;;;5.97;5.38;;;;;;;;;;5059517;28;20265;-85
2023/04/10 09:22:15;;;;;;;7.10;6.50;;;;;;;;;;5059928;28;20293;-87
2023/04/10 09:24:45;;;;;;;5.75;5.22;;;;;;;;;;5059143;28;20182;-87
2023/04/10 09:27:30;;;;;;;7.05;6.38;;;;;;;;;;5059181;28;20248;-85
2023/04/10 09:29:57;;;;;;;7.72;7.03;;;;;;;;;;5059518;28;20205;-86
2023/04/10 09:32:40;;;;;;;7.22;6.55;;;;;;;;;;5060066;28;20236;-86
2023/04/10 09:35:09;;;;;;;7.45;6.75;;;;;;;;;;5058745;28;20213;-87
2023/04/10 09:37:37;;;;;;;5.85;5.25;;;;;;;;;;5057830;28;20305;-86
2023/04/10 09:40:19;;;;;;;6.63;6.03;;;;;;;;;;5059352;28;20429;-86
2023/04/10 09:42:47;;;;;;;6.90;6.20;;;;;;;;;;5057906;28;20205;-87
2023/04/10 09:45:18;;;;;;;5.70;5.20;;;;;;;;;;5068792;28;20237;-86
2023/04/10 09:48:03;;;;;;;6.60;6.00;;;;;;;;;;5078063;28;20235;-87
2023/04/10 09:50:36;;;;;;;5.95;5.45;;;;;;;;;;5078243;28;20196;-87
2023/04/10 09:53:03;;;;;;;7.28;6.63;;;;;;;;;;5078142;28;20177;-85
2023/04/10 09:55:33;;;;;;;6.15;5.57;;;;;;;;;;5077426;28;20205;-84
2023/04/10 09:58:01;;;;;;;6.80;6.00;;;;;;;;;;5077755;28;20260;-84
2023/04/10 10:00:28;;;;;;;7.45;6.75;;;;;;;;;;5078590;28;20260;-87
2023/04/10 10:02:57;;;;;;;7.25;6.60;;;;;;;;;;5079817;28;20295;-86
2023/04/10 10:05:29;;;;;;;6.57;5.97;;;;;;;;;;5080836;28;20251;-85
2023/04/10 10:07:57;;;;;;;6.63;6.03;;;;;;;;;;5081013;28;20267;-85
2023/04/10 10:10:25;;;;;;;6.82;6.22;;;;;;;;;;5080684;28;20268;-87
2023/04/10 10:12:59;;;;;;;6.05;5.55;;;;;;;;;;5081888;28;20264;-83
2023/04/10 10:15:35;;;;;;;6.13;5.63;;;;;;;;;;5076001;28;20204;-85
2023/04/10 10:18:07;;;;;;;5.50;5.03;;;;;;;;;;5075646;28;20714;-86
2023/04/10 10:20:36;;;;;;;5.82;5.32;;;;;;;;;;5074970;28;20195;-85
2023/04/10 10:23:03;;;;;;;5.97;5.35;;;;;;;;;;5075555;28;20240;-85
2023/04/10 10:25:32;;;;;;;5.97;5.47;;;;;;;;;;5075575;28;20284;-84
2023/04/10 10:28:04;;;;;;;6.22;5.72;;;;;;;;;;5075079;28;20281;-86
2023/04/10 10:30:36;;;;;;;6.82;6.25;;;;;;;;;;5059301;28;20281;-84
2023/04/10 10:33:07;;;;;;;7.90;7.10;;;;;;;;;;5074829;28;20193;-83
2023/04/10 10:35:36;;;;;;;6.35;5.75;;;;;;;;;;5075402;28;20193;-84
2023/04/10 10:38:04;;;;;;;6.50;5.90;;;;;;;;;;5077217;28;20228;-86
2023/04/10 10:40:38;;;;;;;6.00;5.50;;;;;;;;;;5058605;28;20202;-86
2023/04/10 10:43:16;;;;;;;6.68;6.07;;;;;;;;;;5067563;28;20278;-87
2023/04/10 10:45:53;;;;;;;5.57;5.07;;;;;;;;;;5077972;28;20526;-86
2023/04/10 10:48:20;;;;;;;6.05;5.28;;;;;;;;;;5078432;28;20256;-86
2023/04/10 10:50:57;;;;;;;6.75;6.15;;;;;;;;;;5077665;28;20245;-86
2023/04/10 10:53:36;;;;;;;4.95;4.55;;;;;;;;;;5077843;28;20201;-87
2023/04/10 10:56:36;;;;;;;5.10;4.70;;;;;;;;;;5078997;28;20217;-87
2023/04/10 10:59:08;;;;;;;4.93;4.50;;;;;;;;;;5077653;28;20634;-86
2023/04/10 11:01:35;;;;;;;5.38;4.88;;;;;;;;;;5080420;28;20181;-87
2023/04/10 11:04:44;;;;;;;4.55;4.15;;;;;;;;;;5079920;28;20229;-87
2023/04/10 11:07:12;;;;;;;4.88;4.47;;;;;;;;;;5078718;28;20685;-87
2023/04/10 11:09:52;;;;;;;5.75;5.25;;;;;;;;;;5076904;28;20201;-87
2023/04/10 11:12:22;;;;;;;6.38;5.70;;;;;;;;;;5077138;28;20200;-85
2023/04/10 11:15:00;;;;;;;6.05;5.50;;;;;;;;;;5068893;28;20709;-86
2023/04/10 11:17:50;;;;;;;5.00;4.60;;;;;;;;;;5054881;28;20225;-87
2023/04/10 11:20:19;;;;;;;5.13;4.72;;;;;;;;;;5054828;28;20186;-87
2023/04/10 11:23:10;;;;;;;4.53;4.13;;;;;;;;;;5055942;28;20202;-87
2023/04/10 11:25:51;;;;;;;4.63;4.22;;;;;;;;;;5055949;28;20205;-87
2023/04/10 11:28:49;;;;;;;4.05;3.70;;;;;;;;;;5056103;28;20186;-87
2023/04/10 11:31:22;;;;;;;3.78;3.47;;;;;;;;;;4993657;28;20295;-87
2023/04/10 11:34:00;;;;;;;5.28;4.32;;;;;;;;;;5043611;28;20206;-86
2023/04/10 11:36:28;;;;;;;4.22;3.92;;;;;;;;;;5056122;28;20227;-88
2023/04/10 11:38:57;;;;;;;4.72;4.32;;;;;;;;;;5056826;28;20288;-88
2023/04/10 11:41:30;;;;;;;3.97;3.67;;;;;;;;;;5055756;28;20292;-87
2023/04/10 11:43:58;;;;;;;4.10;3.80;;;;;;;;;;5055314;28;20647;-87
2023/04/10 11:46:27;;;;;;;5.30;4.80;;;;;;;;;;5055899;28;20221;-87
2023/04/10 11:48:57;;;;;;;3.97;3.67;;;;;;;;;;5057028;28;20288;-85
2023/04/10 11:51:26;;;;;;;4.43;4.05;;;;;;;;;;5057047;28;20623;-86
2023/04/10 11:54:06;;;;;;;4.97;4.22;;;;;;;;;;5056446;28;20288;-87
2023/04/10 11:56:34;;;;;;;3.80;3.33;;;;;;;;;;5058557;28;20249;-88
2023/04/10 11:59:06;;;;;;;3.15;2.95;;;;;;;;;;5057340;28;20268;-86
2023/04/10 12:01:35;;;;;;;3.65;3.35;;;;;;;;;;5055325;28;20281;-87
2023/04/10 12:04:02;;;;;;;3.58;3.28;;;;;;;;;;5057634;28;20233;-86
2023/04/10 12:06:31;;;;;;;3.55;3.25;;;;;;;;;;5054310;28;20221;-86
2023/04/10 12:08:58;;;;;;;3.65;3.35;;;;;;;;;;5072722;28;20197;-87
2023/04/10 12:11:27;;;;;;;3.15;2.95;;;;;;;;;;5074802;28;20625;-86
2023/04/10 12:13:56;;;;;;;4.00;3.70;;;;;;;;;;5073595;28;20201;-87
2023/04/10 12:16:26;;;;;;;3.67;3.38;;;;;;;;;;5055695;28;20651;-86
2023/04/10 12:18:55;;;;;;;3.40;3.13;;;;;;;;;;5057482;28;20232;-87
2023/04/10 12:21:23;;;;;;;2.60;2.40;;;;;;;;;;5055961;28;20259;-87
2023/04/10 12:23:51;;;;;;;3.03;2.83;;;;;;;;;;5055451;28;20228;-87
2023/04/10 12:26:19;;;;;;;3.75;3.45;;;;;;;;;;5053065;28;20225;-88
2023/04/10 12:28:52;;;;;;;2.92;2.72;;;;;;;;;;5056064;28;20264;-87
2023/04/10 12:31:28;;;;;;;3.47;3.17;;;;;;;;;;5055027;28;20225;-88
2023/04/10 12:33:57;;;;;;;3.25;2.95;;;;;;;;;;5055729;28;20197;-86
2023/04/10 12:36:27;;;;;;;2.95;2.75;;;;;;;;;;5054676;28;20601;-87
2023/04/10 12:38:55;;;;;;;2.20;2.10;;;;;;;;;;5055086;28;20255;-87
2023/04/10 12:41:25;;;;;;;2.10;2.00;;;;;;;;;;5055780;28;20280;-86
2023/04/10 12:43:53;;;;;;;2.42;2.33;;;;;;;;;;5074919;28;20219;-88
2023/04/10 12:46:26;;;;;;;3.10;2.65;;;;;;;;;;5075071;28;20313;-87
2023/04/10 12:48:56;;;;;;;2.55;2.13;;;;;;;;;;5076638;28;20657;-86
2023/04/10 12:51:45;;;;;;;2.88;2.00;;;;;;;;;;5076823;28;20197;-88
2023/04/10 12:54:26;;;;;;;2.17;2.08;;;;;;;;;;5075695;28;20280;-89
2023/04/10 12:56:54;;;;;;;2.28;2.08;;;;;;;;;;5076734;28;20216;-87
2023/04/10 12:59:22;;;;;;;2.00;1.90;;;;;;;;;;5074245;28;20208;-88
2023/04/10 13:01:49;;;;;;;1.98;1.88;;;;;;;;;;5075805;28;20288;-87
2023/04/10 13:04:18;;;;;;;2.33;2.22;;;;;;;;;;5074427;28;20233;-86
2023/04/10 13:06:47;;;;;;;2.00;1.90;;;;;;;;;;5075708;28;20217;-86
2023/04/10 13:09:16;;;;;;;2.20;2.00;;;;;;;;;;5074447;28;20288;-86
2023/04/10 13:11:43;;;;;;;2.83;2.63;;;;;;;;;;5075858;28;20209;-85
2023/04/10 13:14:11;;;;;;;2.47;2.28;;;;;;;;;;5071958;28;20245;-87
2023/04/10 13:16:39;;;;;;;2.17;1.98;;;;;;;;;;5056117;28;20694;-86
2023/04/10 13:19:06;;;;;;;3.70;2.47;;;;;;;;;;5055699;28;20225;-86
2023/04/10 13:21:35;;;;;;;3.22;2.92;;;;;;;;;;5055018;28;20269;-86
2023/04/10 13:24:02;;;;;;;2.55;2.35;;;;;;;;;;5055612;28;20725;-87
2023/04/10 13:26:30;;;;;;;3.08;2.78;;;;;;;;;;5053157;28;20231;-85
2023/04/10 13:28:57;;;;;;;2.40;2.20;;;;;;;;;;5053301;28;20312;-87
2023/04/10 13:31:25;;;;;;;4.22;1.88;;;;;;;;;;5054634;28;20565;-88
2023/04/10 13:33:52;;;;;;;2.70;2.50;;;;;;;;;;5054687;28;20617;-86
2023/04/10 13:36:20;;;;;;;2.22;2.08;;;;;;;;;;5054724;28;20728;-87
2023/04/10 13:38:49;;;;;;;2.70;2.50;;;;;;;;;;5057562;28;20850;-87
2023/04/10 13:41:17;;;;;;;2.67;2.47;;;;;;;;;;5064374;28;20637;-87
2023/04/10 13:43:44;;;;;;;2.40;2.20;;;;;;;;;;5080075;28;20292;-87
2023/04/10 13:46:12;;;;;;;2.65;2.47;;;;;;;;;;5059535;28;20254;-86
2023/04/10 13:48:40;;;;;;;2.28;2.10;;;;;;;;;;5056837;28;20308;-87
2023/04/10 13:51:07;;;;;;;2.65;2.45;;;;;;;;;;5057320;28;20244;-86
2023/04/10 13:53:35;;;;;;;2.50;2.30;;;;;;;;;;5057877;28;20204;-85
2023/04/10 13:56:05;;;;;;;2.70;2.50;;;;;;;;;;5056764;28;20197;-86
2023/04/10 13:58:33;;;;;;;2.38;2.17;;;;;;;;;;5057976;28;20260;-87
2023/04/10 14:01:00;;;;;;;2.45;2.25;;;;;;;;;;5059164;28;20292;-86
2023/04/10 14:03:28;;;;;;;2.65;2.45;;;;;;;;;;5058509;28;20209;-86
2023/04/10 14:05:56;;;;;;;2.30;2.20;;;;;;;;;;5059115;28;20639;-86
2023/04/10 14:08:23;;;;;;;2.58;2.38;;;;;;;;;;5058238;28;20285;-87
2023/04/10 14:10:51;;;;;;;2.40;2.20;;;;;;;;;;5058531;28;20244;-88
2023/04/10 14:13:20;;;;;;;2.67;2.47;;;;;;;;;;5078664;28;20244;-86
2023/04/10 14:15:48;;;;;;;2.40;2.20;;;;;;;;;;5061139;28;20202;-86
2023/04/10 14:18:17;;;;;;;2.60;2.40;;;;;;;;;;5056917;28;20198;-85
2023/04/10 14:20:44;;;;;;;2.47;2.30;;;;;;;;;;5056941;28;20205;-87
2023/04/10 14:23:16;;;;;;;2.65;2.45;;;;;;;;;;5057547;28;20658;-87
2023/04/10 14:25:44;;;;;;;2.38;2.20;;;;;;;;;;5056534;28;20186;-87
2023/04/10 14:28:16;;;;;;;2.17;1.80;;;;;;;;;;5058345;28;20222;-87
2023/04/10 14:30:47;;;;;;;2.13;1.88;;;;;;;;;;5058179;28;20579;-87
2023/04/10 14:33:14;;;;;;;2.60;2.40;;;;;;;;;;5056682;28;20190;-88
2023/04/10 14:35:42;;;;;;;2.35;2.15;;;;;;;;;;5058629;28;20617;-87
2023/04/10 14:38:10;;;;;;;2.00;1.90;;;;;;;;;;5056402;28;20753;-87
2023/04/10 14:40:39;;;;;;;1.90;1.80;;;;;;;;;;5057969;28;20659;-87
2023/04/10 14:43:07;;;;;;;2.40;2.25;;;;;;;;;;5055642;28;20202;-88
2023/04/10 14:45:34;;;;;;;2.85;2.33;;;;;;;;;;5071432;28;20296;-87
2023/04/10 14:48:03;;;;;;;2.33;2.13;;;;;;;;;;5075647;28;20815;-87
2023/04/10 14:50:32;;;;;;;2.47;2.28;;;;;;;;;;5078960;28;20331;-87
2023/04/10 14:53:00;;;;;;;2.40;2.20;;;;;;;;;;5077910;28;20280;-87
2023/04/10 14:55:29;;;;;;;2.03;1.92;;;;;;;;;;5077052;28;20201;-87
2023/04/10 14:57:56;;;;;;;2.50;2.30;;;;;;;;;;5075856;28;20563;-87